Isabella, Missouri
Current Conditions -  °F | °C
As of 9:53 AM on Friday 19 Dec 2014 (Local Time) from KBPK Reporting Station
Haze Haze  
Wind Chill: 33°   Ceiling: 700
Heat Index: 37°   Visibility: 5mi
Dew Point: 35°   Wind: 5mph
Humidity: 93%   Direction: 120°ESE
Pressure: 30.27"   Gusts: NA
Location:  36.58°N, 92.61°W
Report Text: KBPK 191553Z AUTO 12004KT 5SM BR OVC007 03/02 A3027 RMK AO2 SLP255 T00280017
Loading
Personal Weather Stations






























Interactive Weather Map New forecast layout! Learn more

10-Day Weather Forecast

Advertisements
Track Severe Weather on mobile